sensor_id;sensor_type;location;lat;lon;timestamp;P1;durP1;ratioP1;P2;durP2;ratioP2
27025;SDS011;14565;48.626;8.978;2022-12-29T00:02:20;3.53;;;1.27;;
27025;SDS011;14565;48.626;8.978;2022-12-29T00:04:46;3.30;;;1.13;;
27025;SDS011;14565;48.626;8.978;2022-12-29T00:07:12;3.80;;;1.13;;
27025;SDS011;14565;48.626;8.978;2022-12-29T00:09:38;1.35;;;0.90;;
27025;SDS011;14565;48.626;8.978;2022-12-29T00:12:04;1.42;;;0.85;;
27025;SDS011;14565;48.626;8.978;2022-12-29T00:14:30;2.28;;;0.90;;
27025;SDS011;14565;48.626;8.978;2022-12-29T00:17:15;1.75;;;1.02;;
27025;SDS011;14565;48.626;8.978;2022-12-29T00:19:41;3.95;;;1.40;;
27025;SDS011;14565;48.626;8.978;2022-12-29T00:22:25;2.35;;;1.00;;
27025;SDS011;14565;48.626;8.978;2022-12-29T00:25:11;2.35;;;1.10;;
27025;SDS011;14565;48.626;8.978;2022-12-29T00:27:56;2.47;;;1.23;;
27025;SDS011;14565;48.626;8.978;2022-12-29T00:30:41;2.47;;;0.90;;
27025;SDS011;14565;48.626;8.978;2022-12-29T00:33:30;3.45;;;1.10;;
27025;SDS011;14565;48.626;8.978;2022-12-29T00:36:20;1.70;;;1.10;;
27025;SDS011;14565;48.626;8.978;2022-12-29T00:38:51;4.47;;;1.08;;
27025;SDS011;14565;48.626;8.978;2022-12-29T00:41:37;2.25;;;1.20;;
27025;SDS011;14565;48.626;8.978;2022-12-29T00:44:24;2.55;;;1.20;;
27025;SDS011;14565;48.626;8.978;2022-12-29T00:46:50;2.15;;;1.00;;
27025;SDS011;14565;48.626;8.978;2022-12-29T00:49:16;3.80;;;1.17;;
27025;SDS011;14565;48.626;8.978;2022-12-29T00:54:27;2.42;;;1.10;;
27025;SDS011;14565;48.626;8.978;2022-12-29T00:56:54;1.25;;;0.80;;
27025;SDS011;14565;48.626;8.978;2022-12-29T00:59:20;2.92;;;1.10;;
27025;SDS011;14565;48.626;8.978;2022-12-29T01:01:46;2.65;;;1.13;;
27025;SDS011;14565;48.626;8.978;2022-12-29T01:04:12;2.10;;;1.00;;
27025;SDS011;14565;48.626;8.978;2022-12-29T01:06:44;2.72;;;1.02;;
27025;SDS011;14565;48.626;8.978;2022-12-29T01:09:10;1.95;;;1.20;;
27025;SDS011;14565;48.626;8.978;2022-12-29T01:11:55;2.95;;;0.88;;
27025;SDS011;14565;48.626;8.978;2022-12-29T01:14:21;1.50;;;1.08;;
27025;SDS011;14565;48.626;8.978;2022-12-29T01:16:47;2.35;;;0.90;;
27025;SDS011;14565;48.626;8.978;2022-12-29T01:19:14;2.80;;;1.00;;
27025;SDS011;14565;48.626;8.978;2022-12-29T01:21:40;3.55;;;1.02;;
27025;SDS011;14565;48.626;8.978;2022-12-29T01:24:06;4.05;;;1.00;;
27025;SDS011;14565;48.626;8.978;2022-12-29T01:26:32;2.63;;;1.00;;
27025;SDS011;14565;48.626;8.978;2022-12-29T01:28:58;1.88;;;0.88;;
27025;SDS011;14565;48.626;8.978;2022-12-29T01:31:24;2.33;;;0.90;;
27025;SDS011;14565;48.626;8.978;2022-12-29T01:33:50;3.72;;;1.02;;
27025;SDS011;14565;48.626;8.978;2022-12-29T01:36:17;1.90;;;0.90;;
27025;SDS011;14565;48.626;8.978;2022-12-29T01:38:43;2.78;;;0.90;;
27025;SDS011;14565;48.626;8.978;2022-12-29T01:41:10;5.30;;;1.10;;
27025;SDS011;14565;48.626;8.978;2022-12-29T01:46:20;1.75;;;0.90;;
27025;SDS011;14565;48.626;8.978;2022-12-29T01:48:50;2.58;;;0.98;;
27025;SDS011;14565;48.626;8.978;2022-12-29T01:51:17;2.53;;;1.02;;
27025;SDS011;14565;48.626;8.978;2022-12-29T01:53:43;5.80;;;1.15;;
27025;SDS011;14565;48.626;8.978;2022-12-29T01:56:10;3.03;;;1.10;;
27025;SDS011;14565;48.626;8.978;2022-12-29T01:58:39;2.97;;;0.90;;
27025;SDS011;14565;48.626;8.978;2022-12-29T02:01:07;1.70;;;0.75;;
27025;SDS011;14565;48.626;8.978;2022-12-29T02:03:33;4.10;;;1.13;;
27025;SDS011;14565;48.626;8.978;2022-12-29T02:08:46;1.38;;;0.90;;
27025;SDS011;14565;48.626;8.978;2022-12-29T02:11:12;4.75;;;0.90;;
27025;SDS011;14565;48.626;8.978;2022-12-29T02:13:38;2.35;;;1.02;;
27025;SDS011;14565;48.626;8.978;2022-12-29T02:26:39;4.90;;;0.90;;
27025;SDS011;14565;48.626;8.978;2022-12-29T02:32:20;3.10;;;0.80;;
27025;SDS011;14565;48.626;8.978;2022-12-29T02:34:48;1.50;;;0.73;;
27025;SDS011;14565;48.626;8.978;2022-12-29T02:39:59;1.70;;;0.80;;
27025;SDS011;14565;48.626;8.978;2022-12-29T02:47:23;1.20;;;0.73;;
27025;SDS011;14565;48.626;8.978;2022-12-29T02:49:55;1.40;;;0.90;;
27025;SDS011;14565;48.626;8.978;2022-12-29T02:52:31;1.55;;;0.80;;
27025;SDS011;14565;48.626;8.978;2022-12-29T02:54:58;2.33;;;0.80;;
27025;SDS011;14565;48.626;8.978;2022-12-29T02:59:54;4.22;;;0.88;;
27025;SDS011;14565;48.626;8.978;2022-12-29T03:19:15;2.78;;;0.88;;
27025;SDS011;14565;48.626;8.978;2022-12-29T03:24:15;1.90;;;0.90;;
27025;SDS011;14565;48.626;8.978;2022-12-29T03:26:43;3.80;;;0.98;;
27025;SDS011;14565;48.626;8.978;2022-12-29T03:29:11;1.70;;;0.82;;
27025;SDS011;14565;48.626;8.978;2022-12-29T03:31:38;3.22;;;1.10;;
27025;SDS011;14565;48.626;8.978;2022-12-29T03:34:04;2.63;;;0.80;;
27025;SDS011;14565;48.626;8.978;2022-12-29T03:37:06;1.75;;;1.10;;
27025;SDS011;14565;48.626;8.978;2022-12-29T03:39:24;1.38;;;0.80;;
27025;SDS011;14565;48.626;8.978;2022-12-29T03:41:51;4.05;;;1.10;;
27025;SDS011;14565;48.626;8.978;2022-12-29T03:44:19;1.45;;;0.80;;
27025;SDS011;14565;48.626;8.978;2022-12-29T03:46:46;1.58;;;1.00;;
27025;SDS011;14565;48.626;8.978;2022-12-29T03:49:12;3.90;;;1.15;;
27025;SDS011;14565;48.626;8.978;2022-12-29T03:51:38;2.65;;;1.00;;
27025;SDS011;14565;48.626;8.978;2022-12-29T03:54:04;4.75;;;1.00;;
27025;SDS011;14565;48.626;8.978;2022-12-29T03:56:30;3.30;;;0.80;;
27025;SDS011;14565;48.626;8.978;2022-12-29T03:58:56;6.18;;;1.20;;
27025;SDS011;14565;48.626;8.978;2022-12-29T04:01:22;2.53;;;0.88;;
27025;SDS011;14565;48.626;8.978;2022-12-29T04:03:48;3.40;;;1.05;;
27025;SDS011;14565;48.626;8.978;2022-12-29T04:06:14;4.22;;;1.10;;
27025;SDS011;14565;48.626;8.978;2022-12-29T04:08:40;2.83;;;1.20;;
27025;SDS011;14565;48.626;8.978;2022-12-29T04:11:06;2.42;;;0.77;;
27025;SDS011;14565;48.626;8.978;2022-12-29T04:13:32;3.40;;;1.20;;
27025;SDS011;14565;48.626;8.978;2022-12-29T04:15:58;2.90;;;1.00;;
27025;SDS011;14565;48.626;8.978;2022-12-29T04:18:24;2.50;;;1.20;;
27025;SDS011;14565;48.626;8.978;2022-12-29T04:20:50;3.95;;;1.02;;
27025;SDS011;14565;48.626;8.978;2022-12-29T04:23:29;2.42;;;1.05;;
27025;SDS011;14565;48.626;8.978;2022-12-29T04:25:56;2.30;;;1.20;;
27025;SDS011;14565;48.626;8.978;2022-12-29T04:28:22;2.35;;;1.10;;
27025;SDS011;14565;48.626;8.978;2022-12-29T04:30:51;3.88;;;1.13;;
27025;SDS011;14565;48.626;8.978;2022-12-29T04:33:17;3.83;;;1.30;;
27025;SDS011;14565;48.626;8.978;2022-12-29T04:35:43;3.10;;;1.40;;
27025;SDS011;14565;48.626;8.978;2022-12-29T04:38:10;2.28;;;1.27;;
27025;SDS011;14565;48.626;8.978;2022-12-29T04:40:37;3.63;;;1.33;;
27025;SDS011;14565;48.626;8.978;2022-12-29T04:43:04;1.83;;;0.95;;
27025;SDS011;14565;48.626;8.978;2022-12-29T04:45:30;5.88;;;1.38;;
27025;SDS011;14565;48.626;8.978;2022-12-29T04:47:56;4.45;;;1.20;;
27025;SDS011;14565;48.626;8.978;2022-12-29T04:50:22;5.00;;;1.25;;
27025;SDS011;14565;48.626;8.978;2022-12-29T04:52:48;4.00;;;1.10;;
27025;SDS011;14565;48.626;8.978;2022-12-29T04:55:14;3.95;;;1.30;;
27025;SDS011;14565;48.626;8.978;2022-12-29T04:57:40;1.83;;;1.13;;
27025;SDS011;14565;48.626;8.978;2022-12-29T05:00:06;3.15;;;1.30;;
27025;SDS011;14565;48.626;8.978;2022-12-29T05:02:34;3.13;;;1.27;;
27025;SDS011;14565;48.626;8.978;2022-12-29T05:05:00;3.40;;;1.13;;
27025;SDS011;14565;48.626;8.978;2022-12-29T05:07:25;1.55;;;1.13;;
27025;SDS011;14565;48.626;8.978;2022-12-29T05:09:52;2.75;;;1.30;;
27025;SDS011;14565;48.626;8.978;2022-12-29T05:12:18;2.28;;;1.30;;
27025;SDS011;14565;48.626;8.978;2022-12-29T05:14:44;1.83;;;1.10;;
27025;SDS011;14565;48.626;8.978;2022-12-29T05:17:10;4.00;;;1.20;;
27025;SDS011;14565;48.626;8.978;2022-12-29T05:19:36;2.28;;;1.20;;
27025;SDS011;14565;48.626;8.978;2022-12-29T05:22:03;4.03;;;1.20;;
27025;SDS011;14565;48.626;8.978;2022-12-29T05:24:29;2.42;;;1.00;;
27025;SDS011;14565;48.626;8.978;2022-12-29T05:26:55;4.13;;;1.17;;
27025;SDS011;14565;48.626;8.978;2022-12-29T05:29:21;2.58;;;1.00;;
27025;SDS011;14565;48.626;8.978;2022-12-29T05:31:47;2.63;;;1.10;;
27025;SDS011;14565;48.626;8.978;2022-12-29T05:34:13;2.80;;;1.20;;
27025;SDS011;14565;48.626;8.978;2022-12-29T05:36:39;2.35;;;1.10;;
27025;SDS011;14565;48.626;8.978;2022-12-29T05:39:05;2.78;;;1.10;;
27025;SDS011;14565;48.626;8.978;2022-12-29T05:41:32;2.05;;;1.10;;
27025;SDS011;14565;48.626;8.978;2022-12-29T05:44:02;1.75;;;1.00;;
27025;SDS011;14565;48.626;8.978;2022-12-29T05:46:28;3.83;;;1.25;;
27025;SDS011;14565;48.626;8.978;2022-12-29T05:48:54;3.05;;;1.20;;
27025;SDS011;14565;48.626;8.978;2022-12-29T05:51:20;2.90;;;1.30;;
27025;SDS011;14565;48.626;8.978;2022-12-29T05:53:46;2.58;;;1.00;;
27025;SDS011;14565;48.626;8.978;2022-12-29T05:56:12;3.28;;;1.10;;
27025;SDS011;14565;48.626;8.978;2022-12-29T05:58:38;4.50;;;2.13;;
27025;SDS011;14565;48.626;8.978;2022-12-29T06:01:04;3.67;;;1.40;;
27025;SDS011;14565;48.626;8.978;2022-12-29T06:03:30;4.82;;;1.65;;
27025;SDS011;14565;48.626;8.978;2022-12-29T06:05:56;2.55;;;1.30;;
27025;SDS011;14565;48.626;8.978;2022-12-29T06:08:22;3.30;;;1.30;;
27025;SDS011;14565;48.626;8.978;2022-12-29T06:10:48;3.25;;;1.10;;
27025;SDS011;14565;48.626;8.978;2022-12-29T06:13:15;2.75;;;0.90;;
27025;SDS011;14565;48.626;8.978;2022-12-29T06:15:41;5.85;;;1.25;;
27025;SDS011;14565;48.626;8.978;2022-12-29T06:18:07;2.88;;;1.17;;
27025;SDS011;14565;48.626;8.978;2022-12-29T06:20:33;1.98;;;1.02;;
27025;SDS011;14565;48.626;8.978;2022-12-29T06:22:59;3.78;;;1.15;;
27025;SDS011;14565;48.626;8.978;2022-12-29T06:25:25;1.65;;;0.98;;
27025;SDS011;14565;48.626;8.978;2022-12-29T06:27:51;3.80;;;1.27;;
27025;SDS011;14565;48.626;8.978;2022-12-29T06:30:17;2.97;;;1.02;;
27025;SDS011;14565;48.626;8.978;2022-12-29T06:32:43;1.23;;;1.00;;
27025;SDS011;14565;48.626;8.978;2022-12-29T06:35:10;3.38;;;1.23;;
27025;SDS011;14565;48.626;8.978;2022-12-29T06:37:36;1.88;;;0.88;;
27025;SDS011;14565;48.626;8.978;2022-12-29T06:40:02;4.00;;;1.30;;
27025;SDS011;14565;48.626;8.978;2022-12-29T06:42:28;3.22;;;1.13;;
27025;SDS011;14565;48.626;8.978;2022-12-29T06:44:54;2.00;;;1.13;;
27025;SDS011;14565;48.626;8.978;2022-12-29T06:47:23;2.45;;;0.98;;
27025;SDS011;14565;48.626;8.978;2022-12-29T06:49:49;3.10;;;1.10;;
27025;SDS011;14565;48.626;8.978;2022-12-29T06:52:15;3.03;;;1.05;;
27025;SDS011;14565;48.626;8.978;2022-12-29T06:54:41;2.53;;;1.10;;
27025;SDS011;14565;48.626;8.978;2022-12-29T06:57:07;2.42;;;1.02;;
27025;SDS011;14565;48.626;8.978;2022-12-29T06:59:33;2.40;;;0.90;;
27025;SDS011;14565;48.626;8.978;2022-12-29T07:01:59;2.22;;;1.30;;
27025;SDS011;14565;48.626;8.978;2022-12-29T07:04:27;4.43;;;1.03;;
27025;SDS011;14565;48.626;8.978;2022-12-29T07:06:53;2.58;;;1.13;;
27025;SDS011;14565;48.626;8.978;2022-12-29T07:09:19;2.10;;;1.00;;
27025;SDS011;14565;48.626;8.978;2022-12-29T07:11:45;2.72;;;1.20;;
27025;SDS011;14565;48.626;8.978;2022-12-29T07:14:11;3.97;;;1.50;;
27025;SDS011;14565;48.626;8.978;2022-12-29T07:16:37;1.42;;;1.10;;
27025;SDS011;14565;48.626;8.978;2022-12-29T07:19:04;1.67;;;1.05;;
27025;SDS011;14565;48.626;8.978;2022-12-29T07:21:30;2.45;;;1.10;;
27025;SDS011;14565;48.626;8.978;2022-12-29T07:23:56;2.65;;;1.00;;
27025;SDS011;14565;48.626;8.978;2022-12-29T07:26:22;3.00;;;1.20;;
27025;SDS011;14565;48.626;8.978;2022-12-29T07:28:49;2.38;;;0.95;;
27025;SDS011;14565;48.626;8.978;2022-12-29T07:31:16;2.35;;;1.00;;
27025;SDS011;14565;48.626;8.978;2022-12-29T07:33:42;4.43;;;0.93;;
27025;SDS011;14565;48.626;8.978;2022-12-29T07:36:09;2.47;;;1.15;;
27025;SDS011;14565;48.626;8.978;2022-12-29T07:38:35;2.90;;;1.00;;
27025;SDS011;14565;48.626;8.978;2022-12-29T07:41:01;2.85;;;1.40;;
27025;SDS011;14565;48.626;8.978;2022-12-29T07:43:27;2.15;;;0.85;;
27025;SDS011;14565;48.626;8.978;2022-12-29T07:45:53;3.85;;;1.10;;
27025;SDS011;14565;48.626;8.978;2022-12-29T07:48:22;3.08;;;1.13;;
27025;SDS011;14565;48.626;8.978;2022-12-29T07:50:48;3.25;;;1.08;;
27025;SDS011;14565;48.626;8.978;2022-12-29T07:53:15;2.33;;;1.08;;
27025;SDS011;14565;48.626;8.978;2022-12-29T07:55:41;2.80;;;1.30;;
27025;SDS011;14565;48.626;8.978;2022-12-29T07:58:07;2.80;;;1.10;;
27025;SDS011;14565;48.626;8.978;2022-12-29T08:00:33;3.47;;;1.10;;
27025;SDS011;14565;48.626;8.978;2022-12-29T08:02:59;2.85;;;1.20;;
27025;SDS011;14565;48.626;8.978;2022-12-29T08:05:25;2.67;;;1.25;;
27025;SDS011;14565;48.626;8.978;2022-12-29T08:07:51;2.63;;;1.00;;
27025;SDS011;14565;48.626;8.978;2022-12-29T08:10:18;2.60;;;1.17;;
27025;SDS011;14565;48.626;8.978;2022-12-29T08:12:44;4.57;;;0.98;;
27025;SDS011;14565;48.626;8.978;2022-12-29T08:15:11;2.22;;;1.00;;
27025;SDS011;14565;48.626;8.978;2022-12-29T08:17:37;3.88;;;1.10;;
27025;SDS011;14565;48.626;8.978;2022-12-29T08:20:03;3.25;;;0.90;;
27025;SDS011;14565;48.626;8.978;2022-12-29T08:22:32;2.88;;;1.15;;
27025;SDS011;14565;48.626;8.978;2022-12-29T08:24:58;2.60;;;1.15;;
27025;SDS011;14565;48.626;8.978;2022-12-29T08:27:25;1.67;;;0.90;;
27025;SDS011;14565;48.626;8.978;2022-12-29T08:29:51;1.98;;;1.02;;
27025;SDS011;14565;48.626;8.978;2022-12-29T08:32:17;3.15;;;1.20;;
27025;SDS011;14565;48.626;8.978;2022-12-29T08:34:43;2.75;;;1.10;;
27025;SDS011;14565;48.626;8.978;2022-12-29T08:37:11;2.20;;;0.95;;
27025;SDS011;14565;48.626;8.978;2022-12-29T08:39:37;5.05;;;1.23;;
27025;SDS011;14565;48.626;8.978;2022-12-29T08:42:03;4.70;;;1.67;;
27025;SDS011;14565;48.626;8.978;2022-12-29T08:44:29;2.75;;;1.20;;
27025;SDS011;14565;48.626;8.978;2022-12-29T08:46:55;1.55;;;0.90;;
27025;SDS011;14565;48.626;8.978;2022-12-29T08:49:21;2.45;;;1.20;;
27025;SDS011;14565;48.626;8.978;2022-12-29T08:51:47;4.00;;;1.05;;
27025;SDS011;14565;48.626;8.978;2022-12-29T08:54:13;2.35;;;1.00;;
27025;SDS011;14565;48.626;8.978;2022-12-29T08:56:39;1.38;;;0.90;;
27025;SDS011;14565;48.626;8.978;2022-12-29T08:59:05;3.30;;;1.13;;
27025;SDS011;14565;48.626;8.978;2022-12-29T09:01:31;2.47;;;1.17;;
27025;SDS011;14565;48.626;8.978;2022-12-29T09:04:00;1.65;;;0.98;;
27025;SDS011;14565;48.626;8.978;2022-12-29T09:06:26;2.25;;;1.10;;
27025;SDS011;14565;48.626;8.978;2022-12-29T09:08:53;4.50;;;1.50;;
27025;SDS011;14565;48.626;8.978;2022-12-29T09:11:24;1.50;;;1.00;;
27025;SDS011;14565;48.626;8.978;2022-12-29T09:13:50;2.13;;;1.30;;
27025;SDS011;14565;48.626;8.978;2022-12-29T09:16:17;3.33;;;1.00;;
27025;SDS011;14565;48.626;8.978;2022-12-29T09:18:43;1.75;;;1.10;;
27025;SDS011;14565;48.626;8.978;2022-12-29T09:21:10;2.15;;;1.00;;
27025;SDS011;14565;48.626;8.978;2022-12-29T09:23:36;2.28;;;1.00;;
27025;SDS011;14565;48.626;8.978;2022-12-29T09:26:03;2.28;;;1.05;;
27025;SDS011;14565;48.626;8.978;2022-12-29T09:28:29;1.38;;;1.00;;
27025;SDS011;14565;48.626;8.978;2022-12-29T09:30:55;3.85;;;1.00;;
27025;SDS011;14565;48.626;8.978;2022-12-29T09:33:21;2.30;;;1.00;;
27025;SDS011;14565;48.626;8.978;2022-12-29T09:35:53;2.55;;;1.10;;
27025;SDS011;14565;48.626;8.978;2022-12-29T09:38:19;2.47;;;1.08;;
27025;SDS011;14565;48.626;8.978;2022-12-29T09:40:45;3.63;;;1.10;;
27025;SDS011;14565;48.626;8.978;2022-12-29T09:48:45;2.42;;;1.05;;
27025;SDS011;14565;48.626;8.978;2022-12-29T09:51:13;3.35;;;1.15;;
27025;SDS011;14565;48.626;8.978;2022-12-29T09:53:42;3.17;;;0.98;;
27025;SDS011;14565;48.626;8.978;2022-12-29T09:56:15;1.95;;;0.95;;
27025;SDS011;14565;48.626;8.978;2022-12-29T10:01:17;2.17;;;0.90;;
27025;SDS011;14565;48.626;8.978;2022-12-29T10:03:51;2.85;;;1.20;;
27025;SDS011;14565;48.626;8.978;2022-12-29T10:16:41;2.35;;;1.17;;
27025;SDS011;14565;48.626;8.978;2022-12-29T10:24:26;3.95;;;1.17;;
27025;SDS011;14565;48.626;8.978;2022-12-29T10:26:54;3.55;;;1.15;;
27025;SDS011;14565;48.626;8.978;2022-12-29T10:29:22;2.33;;;1.20;;
27025;SDS011;14565;48.626;8.978;2022-12-29T10:32:00;2.80;;;1.35;;
27025;SDS011;14565;48.626;8.978;2022-12-29T10:36:54;2.78;;;1.20;;
27025;SDS011;14565;48.626;8.978;2022-12-29T10:44:32;3.85;;;1.00;;
27025;SDS011;14565;48.626;8.978;2022-12-29T10:47:00;3.70;;;1.60;;
27025;SDS011;14565;48.626;8.978;2022-12-29T10:49:29;3.67;;;1.30;;
27025;SDS011;14565;48.626;8.978;2022-12-29T10:51:57;3.70;;;1.20;;
27025;SDS011;14565;48.626;8.978;2022-12-29T10:54:35;4.05;;;1.30;;
27025;SDS011;14565;48.626;8.978;2022-12-29T10:57:04;4.68;;;1.30;;
27025;SDS011;14565;48.626;8.978;2022-12-29T10:59:33;3.42;;;1.20;;
27025;SDS011;14565;48.626;8.978;2022-12-29T11:07:01;6.50;;;1.60;;
27025;SDS011;14565;48.626;8.978;2022-12-29T11:09:28;2.38;;;0.90;;
27025;SDS011;14565;48.626;8.978;2022-12-29T11:11:55;2.60;;;1.30;;
27025;SDS011;14565;48.626;8.978;2022-12-29T11:14:25;5.63;;;1.40;;
27025;SDS011;14565;48.626;8.978;2022-12-29T11:17:02;4.35;;;1.00;;
27025;SDS011;14565;48.626;8.978;2022-12-29T11:19:30;3.92;;;2.05;;
27025;SDS011;14565;48.626;8.978;2022-12-29T11:22:13;1.83;;;1.10;;
27025;SDS011;14565;48.626;8.978;2022-12-29T11:24:45;4.15;;;1.50;;
27025;SDS011;14565;48.626;8.978;2022-12-29T11:27:16;3.05;;;1.20;;
27025;SDS011;14565;48.626;8.978;2022-12-29T11:29:43;2.55;;;1.02;;
27025;SDS011;14565;48.626;8.978;2022-12-29T11:32:19;3.53;;;1.15;;
27025;SDS011;14565;48.626;8.978;2022-12-29T11:34:46;2.70;;;1.23;;
27025;SDS011;14565;48.626;8.978;2022-12-29T11:42:05;4.28;;;1.02;;
27025;SDS011;14565;48.626;8.978;2022-12-29T11:44:38;1.92;;;0.82;;
27025;SDS011;14565;48.626;8.978;2022-12-29T11:47:08;1.30;;;0.82;;
27025;SDS011;14565;48.626;8.978;2022-12-29T11:49:37;1.40;;;0.80;;
27025;SDS011;14565;48.626;8.978;2022-12-29T11:52:03;2.05;;;1.00;;
27025;SDS011;14565;48.626;8.978;2022-12-29T11:54:31;1.25;;;1.10;;
27025;SDS011;14565;48.626;8.978;2022-12-29T11:56:58;2.30;;;1.17;;
27025;SDS011;14565;48.626;8.978;2022-12-29T12:01:57;2.38;;;1.10;;
27025;SDS011;14565;48.626;8.978;2022-12-29T12:04:25;4.43;;;1.35;;
27025;SDS011;14565;48.626;8.978;2022-12-29T12:09:23;3.25;;;1.23;;
27025;SDS011;14565;48.626;8.978;2022-12-29T12:11:51;2.50;;;1.20;;
27025;SDS011;14565;48.626;8.978;2022-12-29T12:14:23;5.13;;;1.50;;
27025;SDS011;14565;48.626;8.978;2022-12-29T12:17:04;4.70;;;1.20;;
27025;SDS011;14565;48.626;8.978;2022-12-29T12:22:03;2.85;;;1.20;;
27025;SDS011;14565;48.626;8.978;2022-12-29T12:27:01;7.10;;;1.52;;
27025;SDS011;14565;48.626;8.978;2022-12-29T12:31:57;3.92;;;1.50;;
27025;SDS011;14565;48.626;8.978;2022-12-29T12:39:25;2.47;;;1.50;;
27025;SDS011;14565;48.626;8.978;2022-12-29T12:41:56;1.98;;;1.20;;
27025;SDS011;14565;48.626;8.978;2022-12-29T12:44:29;3.90;;;1.42;;
27025;SDS011;14565;48.626;8.978;2022-12-29T13:07:37;2.08;;;1.40;;
27025;SDS011;14565;48.626;8.978;2022-12-29T13:28:16;4.10;;;1.75;;
27025;SDS011;14565;48.626;8.978;2022-12-29T13:30:52;4.88;;;1.92;;
27025;SDS011;14565;48.626;8.978;2022-12-29T13:38:51;2.45;;;1.67;;
27025;SDS011;14565;48.626;8.978;2022-12-29T13:41:40;3.28;;;1.80;;
27025;SDS011;14565;48.626;8.978;2022-12-29T13:44:05;4.38;;;1.92;;
27025;SDS011;14565;48.626;8.978;2022-12-29T13:46:39;4.97;;;1.98;;
27025;SDS011;14565;48.626;8.978;2022-12-29T13:49:12;2.67;;;1.58;;
27025;SDS011;14565;48.626;8.978;2022-12-29T13:51:41;4.57;;;1.75;;
27025;SDS011;14565;48.626;8.978;2022-12-29T14:04:14;4.50;;;1.65;;
27025;SDS011;14565;48.626;8.978;2022-12-29T14:06:40;2.75;;;1.50;;
27025;SDS011;14565;48.626;8.978;2022-12-29T14:11:54;2.85;;;1.75;;
27025;SDS011;14565;48.626;8.978;2022-12-29T14:16:46;3.60;;;1.60;;
27025;SDS011;14565;48.626;8.978;2022-12-29T14:19:29;3.33;;;1.60;;
27025;SDS011;14565;48.626;8.978;2022-12-29T14:22:02;3.38;;;1.40;;
27025;SDS011;14565;48.626;8.978;2022-12-29T14:34:47;3.58;;;1.38;;
27025;SDS011;14565;48.626;8.978;2022-12-29T14:37:26;2.72;;;1.60;;
27025;SDS011;14565;48.626;8.978;2022-12-29T14:42:37;1.90;;;1.17;;
27025;SDS011;14565;48.626;8.978;2022-12-29T14:47:39;2.60;;;1.40;;
27025;SDS011;14565;48.626;8.978;2022-12-29T14:57:43;3.35;;;1.88;;
27025;SDS011;14565;48.626;8.978;2022-12-29T15:02:49;3.20;;;1.70;;
27025;SDS011;14565;48.626;8.978;2022-12-29T15:05:24;4.65;;;1.83;;
27025;SDS011;14565;48.626;8.978;2022-12-29T15:07:52;6.03;;;1.73;;
27025;SDS011;14565;48.626;8.978;2022-12-29T15:10:18;2.65;;;1.45;;
27025;SDS011;14565;48.626;8.978;2022-12-29T15:12:49;7.68;;;1.60;;
27025;SDS011;14565;48.626;8.978;2022-12-29T15:17:46;6.72;;;2.80;;
27025;SDS011;14565;48.626;8.978;2022-12-29T15:22:48;8.60;;;3.85;;
27025;SDS011;14565;48.626;8.978;2022-12-29T15:25:18;8.38;;;3.20;;
27025;SDS011;14565;48.626;8.978;2022-12-29T15:27:51;3.63;;;2.13;;
27025;SDS011;14565;48.626;8.978;2022-12-29T15:30:17;6.28;;;1.63;;
27025;SDS011;14565;48.626;8.978;2022-12-29T15:32:43;2.15;;;1.48;;
27025;SDS011;14565;48.626;8.978;2022-12-29T15:35:21;2.60;;;1.23;;
27025;SDS011;14565;48.626;8.978;2022-12-29T15:37:48;2.20;;;1.40;;
27025;SDS011;14565;48.626;8.978;2022-12-29T15:42:54;3.03;;;1.17;;
27025;SDS011;14565;48.626;8.978;2022-12-29T15:45:25;3.25;;;1.50;;
27025;SDS011;14565;48.626;8.978;2022-12-29T15:47:53;3.90;;;1.52;;
27025;SDS011;14565;48.626;8.978;2022-12-29T15:52:52;4.28;;;2.67;;
27025;SDS011;14565;48.626;8.978;2022-12-29T15:55:19;3.35;;;1.55;;
27025;SDS011;14565;48.626;8.978;2022-12-29T15:57:46;4.18;;;2.25;;
27025;SDS011;14565;48.626;8.978;2022-12-29T16:00:34;3.45;;;1.67;;
27025;SDS011;14565;48.626;8.978;2022-12-29T16:03:01;5.90;;;2.67;;
27025;SDS011;14565;48.626;8.978;2022-12-29T16:05:34;3.95;;;1.73;;
27025;SDS011;14565;48.626;8.978;2022-12-29T16:08:01;2.97;;;1.65;;
27025;SDS011;14565;48.626;8.978;2022-12-29T16:10:30;4.97;;;1.65;;
27025;SDS011;14565;48.626;8.978;2022-12-29T16:13:32;3.90;;;1.50;;
27025;SDS011;14565;48.626;8.978;2022-12-29T16:15:52;4.60;;;2.17;;
27025;SDS011;14565;48.626;8.978;2022-12-29T16:18:35;4.97;;;2.30;;
27025;SDS011;14565;48.626;8.978;2022-12-29T16:21:03;4.63;;;2.13;;
27025;SDS011;14565;48.626;8.978;2022-12-29T16:23:29;4.55;;;2.28;;
27025;SDS011;14565;48.626;8.978;2022-12-29T16:25:56;8.15;;;2.45;;
27025;SDS011;14565;48.626;8.978;2022-12-29T16:28:40;5.95;;;1.85;;
27025;SDS011;14565;48.626;8.978;2022-12-29T16:31:15;5.57;;;1.80;;
27025;SDS011;14565;48.626;8.978;2022-12-29T16:36:28;8.20;;;2.40;;
27025;SDS011;14565;48.626;8.978;2022-12-29T16:39:09;4.45;;;2.45;;
27025;SDS011;14565;48.626;8.978;2022-12-29T16:41:37;8.27;;;4.03;;
27025;SDS011;14565;48.626;8.978;2022-12-29T16:44:15;3.47;;;1.90;;
27025;SDS011;14565;48.626;8.978;2022-12-29T16:47:01;4.70;;;2.83;;
27025;SDS011;14565;48.626;8.978;2022-12-29T16:49:29;3.17;;;1.85;;
27025;SDS011;14565;48.626;8.978;2022-12-29T16:51:55;9.00;;;3.17;;
27025;SDS011;14565;48.626;8.978;2022-12-29T16:54:32;5.43;;;2.83;;
27025;SDS011;14565;48.626;8.978;2022-12-29T16:56:59;5.30;;;2.70;;
27025;SDS011;14565;48.626;8.978;2022-12-29T16:59:26;6.35;;;3.05;;
27025;SDS011;14565;48.626;8.978;2022-12-29T17:01:54;4.80;;;3.03;;
27025;SDS011;14565;48.626;8.978;2022-12-29T17:04:20;13.55;;;9.15;;
27025;SDS011;14565;48.626;8.978;2022-12-29T17:06:49;8.13;;;4.22;;
27025;SDS011;14565;48.626;8.978;2022-12-29T17:09:19;3.17;;;2.35;;
27025;SDS011;14565;48.626;8.978;2022-12-29T17:11:46;8.00;;;5.45;;
27025;SDS011;14565;48.626;8.978;2022-12-29T17:16:54;6.45;;;3.00;;
27025;SDS011;14565;48.626;8.978;2022-12-29T17:19:22;6.47;;;3.15;;
27025;SDS011;14565;48.626;8.978;2022-12-29T17:21:48;4.82;;;3.13;;
27025;SDS011;14565;48.626;8.978;2022-12-29T17:24:16;7.07;;;3.50;;
27025;SDS011;14565;48.626;8.978;2022-12-29T17:26:43;8.57;;;3.20;;
27025;SDS011;14565;48.626;8.978;2022-12-29T17:29:12;5.70;;;3.65;;
27025;SDS011;14565;48.626;8.978;2022-12-29T17:31:41;5.82;;;3.42;;
27025;SDS011;14565;48.626;8.978;2022-12-29T17:34:10;6.13;;;4.35;;
27025;SDS011;14565;48.626;8.978;2022-12-29T17:36:37;7.82;;;5.20;;
27025;SDS011;14565;48.626;8.978;2022-12-29T17:39:04;5.18;;;3.15;;
27025;SDS011;14565;48.626;8.978;2022-12-29T17:41:30;4.80;;;3.03;;
27025;SDS011;14565;48.626;8.978;2022-12-29T17:43:57;8.38;;;6.03;;
27025;SDS011;14565;48.626;8.978;2022-12-29T17:46:24;6.80;;;4.53;;
27025;SDS011;14565;48.626;8.978;2022-12-29T17:48:53;27.55;;;13.73;;
27025;SDS011;14565;48.626;8.978;2022-12-29T17:51:19;11.75;;;7.65;;
27025;SDS011;14565;48.626;8.978;2022-12-29T17:53:45;10.27;;;6.45;;
27025;SDS011;14565;48.626;8.978;2022-12-29T17:56:12;6.32;;;4.63;;
27025;SDS011;14565;48.626;8.978;2022-12-29T17:58:38;9.30;;;4.82;;
27025;SDS011;14565;48.626;8.978;2022-12-29T18:01:04;4.93;;;2.60;;
27025;SDS011;14565;48.626;8.978;2022-12-29T18:03:32;5.10;;;2.40;;
27025;SDS011;14565;48.626;8.978;2022-12-29T18:08:24;5.13;;;2.03;;
27025;SDS011;14565;48.626;8.978;2022-12-29T18:10:52;5.82;;;2.35;;
27025;SDS011;14565;48.626;8.978;2022-12-29T18:13:23;2.67;;;1.92;;
27025;SDS011;14565;48.626;8.978;2022-12-29T18:15:49;3.15;;;1.90;;
27025;SDS011;14565;48.626;8.978;2022-12-29T18:18:17;6.82;;;3.22;;
27025;SDS011;14565;48.626;8.978;2022-12-29T18:20:44;5.90;;;1.85;;
27025;SDS011;14565;48.626;8.978;2022-12-29T18:28:15;6.72;;;3.90;;
27025;SDS011;14565;48.626;8.978;2022-12-29T18:30:41;4.45;;;2.30;;
27025;SDS011;14565;48.626;8.978;2022-12-29T18:33:14;5.70;;;2.40;;
27025;SDS011;14565;48.626;8.978;2022-12-29T18:35:42;5.90;;;2.40;;